createdAt,value
2022-09-01T00:00:31.196Z,19.20
2022-09-01T00:02:59.529Z,19.20
2022-09-01T00:05:28.096Z,19.20
2022-09-01T00:07:56.504Z,19.20
2022-09-01T00:15:23.726Z,19.00
2022-09-01T00:17:51.930Z,19.10
2022-09-01T00:20:20.947Z,19.00
2022-09-01T00:22:49.743Z,19.00
2022-09-01T00:25:20.436Z,19.00
2022-09-01T00:27:51.669Z,19.00
2022-09-01T00:30:20.263Z,18.90
2022-09-01T00:32:49.049Z,19.00
2022-09-01T00:35:19.749Z,18.90
2022-09-01T00:37:48.034Z,18.90
2022-09-01T00:40:18.739Z,18.90
2022-09-01T00:45:19.418Z,18.90
2022-09-01T00:50:20.403Z,18.90
2022-09-01T00:52:52.994Z,18.90
2022-09-01T00:55:29.984Z,18.90
2022-09-01T00:58:02.880Z,18.80
2022-09-01T01:00:40.957Z,18.80
2022-09-01T01:03:10.888Z,18.70
2022-09-01T01:05:41.585Z,18.70
2022-09-01T01:08:12.176Z,18.70
2022-09-01T01:10:43.187Z,18.70
2022-09-01T01:13:14.078Z,18.60
2022-09-01T01:15:45.089Z,18.70
2022-09-01T01:18:13.604Z,18.60
2022-09-01T01:21:00.061Z,18.60
2022-09-01T01:23:39.253Z,18.60
2022-09-01T01:26:10.850Z,18.60
2022-09-01T01:28:40.641Z,18.50
2022-09-01T01:31:12.748Z,18.50
2022-09-01T01:33:44.715Z,18.50
2022-09-01T01:36:16.109Z,18.50
2022-09-01T01:38:47.693Z,18.50
2022-09-01T01:41:20.046Z,18.40
2022-09-01T01:43:51.137Z,18.40
2022-09-01T01:46:20.641Z,18.40
2022-09-01T01:48:50.601Z,18.40
2022-09-01T01:51:21.338Z,18.30
2022-09-01T01:53:52.850Z,18.30
2022-09-01T01:56:25.775Z,18.30
2022-09-01T02:01:28.834Z,18.30
2022-09-01T02:06:29.734Z,18.20
2022-09-01T02:09:03.087Z,18.20
2022-09-01T02:11:34.209Z,18.20
2022-09-01T02:14:03.085Z,18.20
2022-09-01T02:16:33.129Z,18.30
2022-09-01T02:19:07.233Z,18.20
2022-09-01T02:24:08.580Z,18.20
2022-09-01T02:26:42.992Z,18.10
2022-09-01T02:29:18.207Z,18.10
2022-09-01T02:31:48.694Z,18.00
2022-09-01T02:34:18.140Z,18.00
2022-09-01T02:36:49.642Z,18.00
2022-09-01T02:39:19.958Z,18.00
2022-09-01T02:41:49.838Z,18.00
2022-09-01T02:44:19.243Z,18.00
2022-09-01T02:46:48.385Z,18.10
2022-09-01T02:49:19.893Z,18.10
2022-09-01T02:51:54.009Z,18.10
2022-09-01T02:54:24.662Z,18.00
2022-09-01T02:56:54.936Z,18.00
2022-09-01T02:59:24.827Z,17.90
2022-09-01T03:04:24.503Z,17.90
2022-09-01T03:09:24.193Z,17.90
2022-09-01T03:11:54.965Z,17.80
2022-09-01T03:14:24.505Z,17.80
2022-09-01T03:16:53.094Z,17.80
2022-09-01T03:19:43.901Z,17.80
2022-09-01T03:27:11.833Z,17.70
2022-09-01T03:29:40.230Z,17.70
2022-09-01T03:32:08.736Z,17.70
2022-09-01T03:34:37.122Z,17.60
2022-09-01T03:39:36.768Z,17.60
2022-09-01T03:42:05.324Z,17.60
2022-09-01T03:44:35.426Z,17.60
2022-09-01T03:47:03.802Z,17.60
2022-09-01T03:49:33.369Z,17.60
2022-09-01T03:54:33.081Z,17.50
2022-09-01T04:02:00.427Z,17.50
2022-09-01T04:04:31.475Z,17.50
2022-09-01T04:07:00.264Z,17.40
2022-09-01T04:09:29.285Z,17.50
2022-09-01T04:11:57.714Z,17.50
2022-09-01T04:14:29.213Z,17.50
2022-09-01T04:17:17.682Z,17.40
2022-09-01T04:20:08.890Z,17.40
2022-09-01T04:22:38.259Z,17.40
2022-09-01T04:25:07.318Z,17.40
2022-09-01T04:27:36.255Z,17.30
2022-09-01T04:32:35.800Z,17.50
2022-09-01T04:35:04.308Z,17.40
2022-09-01T04:42:32.520Z,17.30
2022-09-01T04:47:42.261Z,17.20
2022-09-01T04:50:17.748Z,17.20
2022-09-01T04:52:47.764Z,17.20
2022-09-01T04:55:18.822Z,17.20
2022-09-01T04:57:49.397Z,17.30
2022-09-01T05:00:23.462Z,17.30
2022-09-01T05:02:54.825Z,17.30
2022-09-01T05:05:24.576Z,17.40
2022-09-01T05:10:30.039Z,17.30
2022-09-01T05:12:58.663Z,17.30
2022-09-01T05:15:27.076Z,17.30
2022-09-01T05:18:00.099Z,17.40
2022-09-01T05:20:30.253Z,17.40
2022-09-01T05:25:27.501Z,17.50
2022-09-01T05:27:55.897Z,17.40
2022-09-01T05:32:58.395Z,17.50
2022-09-01T05:38:02.525Z,17.50
2022-09-01T05:40:31.100Z,17.50
2022-09-01T05:42:59.457Z,17.50
2022-09-01T05:45:28.307Z,17.50
2022-09-01T05:47:59.846Z,17.50
2022-09-01T05:55:22.999Z,17.50
2022-09-01T05:57:52.543Z,17.50
2022-09-01T06:00:21.533Z,17.50
2022-09-01T06:02:50.390Z,17.50
2022-09-01T06:05:19.204Z,17.50
2022-09-01T06:07:47.418Z,17.50
2022-09-01T06:10:16.146Z,17.50
2022-09-01T06:12:48.697Z,17.50
2022-09-01T06:15:21.304Z,17.50
2022-09-01T06:20:19.156Z,17.60
2022-09-01T06:22:47.892Z,17.70
2022-09-01T06:25:17.464Z,17.70
2022-09-01T06:27:48.304Z,17.80
2022-09-01T06:30:23.836Z,15.70
2022-09-01T06:32:53.958Z,17.80
2022-09-01T06:35:25.227Z,17.80
2022-09-01T06:37:53.447Z,17.90
2022-09-01T06:40:21.633Z,18.00
2022-09-01T06:42:53.334Z,18.00
2022-09-01T06:45:23.189Z,18.20
2022-09-01T06:47:59.433Z,18.50
2022-09-01T06:56:09.975Z,18.90
2022-09-01T06:58:40.436Z,19.10
2022-09-01T07:01:12.054Z,19.50
2022-09-01T07:03:40.621Z,19.80
2022-09-01T07:06:58.661Z,20.00
2022-09-01T07:17:30.936Z,19.60
2022-09-01T07:20:23.340Z,19.50
2022-09-01T07:23:05.594Z,19.50
2022-09-01T07:26:01.178Z,19.60
2022-09-01T07:28:39.907Z,19.90
2022-09-01T07:39:55.493Z,20.10
2022-09-01T07:45:29.595Z,20.40
2022-09-01T07:48:06.597Z,20.50
2022-09-01T07:51:34.218Z,20.60
2022-09-01T07:53:29.778Z,20.80
2022-09-01T07:55:59.501Z,20.80
2022-09-01T07:58:31.581Z,20.80
2022-09-01T08:01:02.550Z,20.90
2022-09-01T08:03:32.261Z,21.00
2022-09-01T08:06:06.776Z,21.40
2022-09-01T08:08:36.551Z,21.70
2022-09-01T08:13:41.651Z,22.80
2022-09-01T08:16:19.086Z,22.80
2022-09-01T08:18:49.779Z,22.90
2022-09-01T08:21:22.262Z,22.70
2022-09-01T08:23:51.721Z,22.60
2022-09-01T08:26:27.667Z,22.50
2022-09-01T08:28:59.027Z,22.50
2022-09-01T08:31:31.332Z,22.50
2022-09-01T08:34:01.162Z,22.50
2022-09-01T08:41:47.334Z,22.50
2022-09-01T08:44:24.069Z,22.50
2022-09-01T08:47:02.472Z,22.50
2022-09-01T08:49:42.912Z,22.90
2022-09-01T08:52:25.542Z,23.10
2022-09-01T08:55:03.731Z,23.00
2022-09-01T08:57:35.602Z,23.00
2022-09-01T09:00:10.008Z,22.90
2022-09-01T09:02:52.166Z,22.90
2022-09-01T09:05:43.084Z,22.70
2022-09-01T09:08:41.141Z,22.60
2022-09-01T09:11:18.339Z,22.80
2022-09-01T09:14:01.934Z,23.10
2022-09-01T09:16:39.104Z,23.20
2022-09-01T09:19:14.498Z,23.40
2022-09-01T09:21:58.567Z,23.60
2022-09-01T09:24:52.523Z,23.60
2022-09-01T09:28:00.533Z,23.80
2022-09-01T09:33:52.100Z,24.30
2022-09-01T09:36:29.872Z,24.40
2022-09-01T09:39:54.170Z,24.70
2022-09-01T09:42:36.367Z,24.70
2022-09-01T09:45:23.984Z,24.40
2022-09-01T09:50:26.309Z,24.70
2022-09-01T09:53:14.751Z,24.90
2022-09-01T09:56:34.502Z,25.20
2022-09-01T09:59:29.326Z,24.80
2022-09-01T10:02:35.869Z,24.60
2022-09-01T10:06:01.923Z,24.10
2022-09-01T10:09:01.246Z,24.50
2022-09-01T10:11:50.019Z,24.90
2022-09-01T10:14:47.962Z,25.20
2022-09-01T10:17:20.474Z,25.60
2022-09-01T10:25:32.298Z,26.10
2022-09-01T10:28:20.956Z,26.10
2022-09-01T10:30:53.366Z,26.30
2022-09-01T10:33:24.966Z,26.30
2022-09-01T10:36:02.397Z,26.10
2022-09-01T10:39:04.618Z,25.80
2022-09-01T10:45:02.319Z,25.80
2022-09-01T10:47:37.084Z,25.90
2022-09-01T10:50:10.316Z,26.10
2022-09-01T10:53:04.894Z,26.20
2022-09-01T10:55:42.647Z,26.40
2022-09-01T11:02:34.929Z,26.60
2022-09-01T11:05:28.033Z,26.60
2022-09-01T11:08:01.584Z,26.20
2022-09-01T11:10:47.741Z,25.90
2022-09-01T11:13:49.718Z,25.30
2022-09-01T11:16:48.001Z,25.00
2022-09-01T11:19:36.240Z,24.50
2022-09-01T11:22:22.117Z,24.40
2022-09-01T11:25:00.116Z,24.20
2022-09-01T11:28:04.481Z,24.20
2022-09-01T11:30:52.188Z,24.20
2022-09-01T11:33:41.591Z,24.10
2022-09-01T11:36:18.869Z,24.00
2022-09-01T11:38:58.030Z,24.10
2022-09-01T11:41:50.665Z,24.40
2022-09-01T11:44:26.663Z,24.50
2022-09-01T11:47:09.581Z,24.50
2022-09-01T11:49:48.869Z,24.30
2022-09-01T11:52:20.162Z,24.30
2022-09-01T11:54:49.472Z,24.10
2022-09-01T11:57:25.363Z,24.20
2022-09-01T11:59:54.203Z,24.00
2022-09-01T12:02:25.943Z,24.00
2022-09-01T12:04:56.439Z,24.10
2022-09-01T12:07:39.465Z,24.20
2022-09-01T12:10:20.106Z,24.30
2022-09-01T12:12:48.827Z,24.30
2022-09-01T12:15:22.962Z,24.30
2022-09-01T12:17:52.034Z,24.20
2022-09-01T12:20:31.847Z,24.20
2022-09-01T12:23:02.448Z,23.60
2022-09-01T12:25:34.362Z,24.20
2022-09-01T12:28:04.030Z,24.20
2022-09-01T12:30:35.548Z,24.10
2022-09-01T12:33:23.611Z,24.10
2022-09-01T12:36:10.315Z,24.10
2022-09-01T12:38:40.022Z,24.20
2022-09-01T12:41:36.038Z,24.10
2022-09-01T12:44:30.467Z,24.10
2022-09-01T12:47:00.958Z,24.10
2022-09-01T12:50:03.485Z,24.10
2022-09-01T12:52:33.811Z,24.20
2022-09-01T12:58:07.896Z,24.50
2022-09-01T13:00:39.154Z,24.50
2022-09-01T13:03:14.717Z,24.60
2022-09-01T13:05:47.192Z,24.50
2022-09-01T13:08:18.768Z,25.50
2022-09-01T13:10:51.766Z,24.40
2022-09-01T13:13:21.360Z,24.30
2022-09-01T13:15:52.300Z,24.40
2022-09-01T13:18:22.030Z,24.30
2022-09-01T13:23:35.606Z,24.10
2022-09-01T13:26:05.685Z,24.00
2022-09-01T13:28:36.442Z,24.00
2022-09-01T13:34:22.377Z,24.00
2022-09-01T13:36:48.326Z,24.10
2022-09-01T13:39:20.594Z,24.30
2022-09-01T13:41:51.396Z,24.30
2022-09-01T13:44:19.912Z,24.40
2022-09-01T13:50:06.500Z,24.50
2022-09-01T13:52:26.279Z,24.60
2022-09-01T13:54:55.048Z,24.60
2022-09-01T13:57:26.191Z,24.60
2022-09-01T13:59:56.635Z,24.60
2022-09-01T14:02:27.324Z,24.60
2022-09-01T14:04:57.851Z,24.70
2022-09-01T14:07:25.949Z,24.50
2022-09-01T14:09:55.119Z,24.50
2022-09-01T14:15:12.376Z,24.60
2022-09-01T14:17:45.701Z,24.60
2022-09-01T14:20:18.347Z,24.50
2022-09-01T14:22:47.543Z,24.50
2022-09-01T14:25:17.316Z,24.50
2022-09-01T14:27:48.066Z,24.60
2022-09-01T14:30:19.689Z,24.70
2022-09-01T14:32:48.153Z,24.60
2022-09-01T14:35:17.194Z,24.60
2022-09-01T14:37:46.237Z,24.50
2022-09-01T14:40:17.179Z,24.40
2022-09-01T14:42:50.019Z,24.40
2022-09-01T14:45:19.743Z,24.40
2022-09-01T14:47:48.684Z,24.30
2022-09-01T14:50:21.765Z,24.20
2022-09-01T14:52:54.817Z,24.20
2022-09-01T14:55:24.114Z,24.20
2022-09-01T14:57:55.190Z,24.10
2022-09-01T15:00:26.390Z,24.00
2022-09-01T15:02:56.410Z,23.90
2022-09-01T15:05:26.430Z,24.00
2022-09-01T15:07:55.640Z,24.00
2022-09-01T15:10:27.790Z,24.10
2022-09-01T15:13:01.264Z,24.10
2022-09-01T15:15:30.412Z,24.10
2022-09-01T15:18:00.311Z,24.00
2022-09-01T15:23:39.018Z,24.00
2022-09-01T15:26:07.426Z,24.20
2022-09-01T15:28:37.428Z,24.20
2022-09-01T15:31:07.385Z,24.20
2022-09-01T15:36:06.865Z,24.20
2022-09-01T15:38:35.270Z,24.30
2022-09-01T15:41:03.564Z,24.30
2022-09-01T15:43:32.162Z,24.30
2022-09-01T15:46:05.353Z,24.30
2022-09-01T15:48:33.627Z,24.30
2022-09-01T15:51:29.433Z,24.30
2022-09-01T15:54:02.481Z,24.30
2022-09-01T15:56:32.519Z,24.30
2022-09-01T15:59:02.212Z,24.20
2022-09-01T16:01:34.979Z,24.10
2022-09-01T16:04:04.652Z,24.10
2022-09-01T16:06:34.479Z,24.10
2022-09-01T16:11:32.040Z,24.10
2022-09-01T16:14:01.931Z,24.10
2022-09-01T16:16:42.627Z,24.10
2022-09-01T16:19:25.214Z,24.00
2022-09-01T16:22:01.241Z,24.00
2022-09-01T16:24:30.035Z,24.00
2022-09-01T16:26:59.556Z,24.00
2022-09-01T16:29:36.142Z,24.10
2022-09-01T16:32:06.719Z,24.10
2022-09-01T16:37:10.123Z,24.00
2022-09-01T16:39:47.255Z,24.10
2022-09-01T16:42:26.331Z,24.10
2022-09-01T16:45:04.890Z,24.00
2022-09-01T16:47:46.446Z,24.10
2022-09-01T16:50:28.858Z,24.10
2022-09-01T16:53:11.074Z,24.10
2022-09-01T16:55:51.834Z,24.10
2022-09-01T16:58:25.734Z,23.90
2022-09-01T17:01:02.187Z,24.00
2022-09-01T17:03:42.725Z,24.00
2022-09-01T17:06:18.595Z,23.90
2022-09-01T17:08:55.432Z,23.90
2022-09-01T17:11:34.542Z,23.90
2022-09-01T17:14:04.424Z,23.90
2022-09-01T17:16:39.775Z,23.80
2022-09-01T17:19:15.991Z,23.70
2022-09-01T17:21:53.101Z,23.80
2022-09-01T17:24:33.779Z,23.70
2022-09-01T17:29:52.801Z,23.60
2022-09-01T17:32:39.688Z,23.60
2022-09-01T17:35:19.496Z,23.60
2022-09-01T17:38:01.188Z,23.60
2022-09-01T17:40:35.579Z,23.60
2022-09-01T17:43:08.907Z,23.40
2022-09-01T17:45:51.191Z,23.40
2022-09-01T17:48:29.366Z,23.40
2022-09-01T17:51:08.687Z,23.40
2022-09-01T17:53:45.528Z,23.40
2022-09-01T17:56:29.283Z,23.20
2022-09-01T17:59:03.913Z,23.30
2022-09-01T18:01:44.264Z,23.20
2022-09-01T18:04:38.798Z,23.10
2022-09-01T18:07:16.934Z,23.10
2022-09-01T18:09:53.965Z,23.00
2022-09-01T18:12:28.277Z,23.00
2022-09-01T18:15:05.356Z,22.90
2022-09-01T18:17:36.124Z,22.90
2022-09-01T18:20:10.255Z,22.80
2022-09-01T18:22:48.370Z,22.80
2022-09-01T18:25:20.875Z,22.80
2022-09-01T18:33:26.699Z,22.60
2022-09-01T18:36:04.592Z,22.60
2022-09-01T18:38:44.050Z,22.60
2022-09-01T18:41:29.962Z,22.50
2022-09-01T18:44:07.846Z,22.50
2022-09-01T18:46:45.311Z,22.40
2022-09-01T18:49:30.694Z,22.40
2022-09-01T18:52:12.509Z,22.40
2022-09-01T18:54:53.901Z,22.30
2022-09-01T18:57:25.479Z,22.20
2022-09-01T19:00:12.499Z,22.20
2022-09-01T19:03:00.884Z,22.10
2022-09-01T19:05:48.064Z,23.20
2022-09-01T19:08:27.063Z,22.10
2022-09-01T19:11:04.704Z,22.00
2022-09-01T19:13:49.591Z,22.00
2022-09-01T19:16:30.298Z,21.90
2022-09-01T19:19:06.799Z,21.90
2022-09-01T19:21:35.688Z,21.90
2022-09-01T19:24:11.029Z,21.80
2022-09-01T19:26:44.482Z,21.70
2022-09-01T19:29:17.765Z,21.60
2022-09-01T19:31:49.561Z,21.50
2022-09-01T19:34:20.070Z,21.50
2022-09-01T19:37:00.139Z,21.40
2022-09-01T19:39:31.538Z,21.40
2022-09-01T19:42:06.127Z,21.30
2022-09-01T19:44:42.348Z,21.20
2022-09-01T19:47:15.878Z,21.20
2022-09-01T19:49:49.933Z,21.10
2022-09-01T19:52:29.834Z,21.00
2022-09-01T19:55:04.916Z,21.00
2022-09-01T19:57:40.855Z,21.00
2022-09-01T20:00:15.981Z,21.00
2022-09-01T20:02:51.389Z,21.00
2022-09-01T20:05:31.778Z,21.00
2022-09-01T20:08:04.011Z,21.00
2022-09-01T20:11:10.047Z,21.00
2022-09-01T20:17:38.385Z,21.10
2022-09-01T20:20:11.541Z,21.10
2022-09-01T20:22:55.623Z,21.10
2022-09-01T20:32:27.861Z,21.00
2022-09-01T20:35:00.229Z,20.90
2022-09-01T20:37:38.475Z,20.90
2022-09-01T20:40:10.357Z,21.20
2022-09-01T20:42:49.779Z,20.90
2022-09-01T20:45:19.987Z,20.90
2022-09-01T20:47:58.231Z,20.90
2022-09-01T20:50:34.097Z,20.90
2022-09-01T20:53:20.076Z,20.90
2022-09-01T20:55:55.556Z,18.30
2022-09-01T20:58:44.582Z,20.80
2022-09-01T21:01:19.904Z,20.80
2022-09-01T21:04:03.144Z,20.80
2022-09-01T21:06:51.445Z,20.80
2022-09-01T21:09:29.849Z,20.80
2022-09-01T21:12:24.225Z,20.80
2022-09-01T21:15:04.797Z,20.80
2022-09-01T21:17:41.267Z,20.90
2022-09-01T21:20:26.690Z,21.00
2022-09-01T21:22:57.180Z,20.90
2022-09-01T21:30:38.269Z,20.80
2022-09-01T21:35:42.806Z,20.90
2022-09-01T21:43:16.185Z,20.80
2022-09-01T21:45:56.392Z,19.70
2022-09-01T21:48:26.297Z,20.70
2022-09-01T21:53:28.946Z,20.60
2022-09-01T22:05:59.763Z,20.50
2022-09-01T22:08:28.678Z,20.40
2022-09-01T22:12:23.122Z,20.30
2022-09-01T22:14:39.340Z,20.20
2022-09-01T22:39:34.725Z,20.00
2022-09-01T22:56:59.811Z,19.70
2022-09-01T23:09:24.676Z,19.60
2022-09-01T23:11:53.085Z,19.60
2022-09-01T23:14:22.729Z,19.60
2022-09-01T23:16:51.974Z,19.60
2022-09-01T23:19:20.545Z,19.50
2022-09-01T23:21:49.061Z,19.50
2022-09-01T23:24:19.852Z,19.50
2022-09-01T23:26:48.862Z,19.50
2022-09-01T23:29:17.152Z,19.50
2022-09-01T23:31:48.065Z,19.40
2022-09-01T23:36:45.821Z,19.40
2022-09-01T23:41:43.277Z,19.40
2022-09-01T23:46:43.268Z,19.30
2022-09-01T23:49:14.755Z,19.30
2022-09-01T23:51:43.308Z,19.30
2022-09-01T23:56:41.299Z,19.30
